Terminal Aerodrome Forecast
Issued by NWS

Home | Current Version | Previous Version | Graphics & Text | Print | Product List | Glossary On
Versions: 1 2 3 4 5 6 7 8 9 10 11 12 13 14 15
000
FTUS43 KMPX 241700
TAFRWF
TAF
KRWF 241737Z 2418/2518 19011KT P6SM SCT100 BKN250
     FM250000 24007KT P6SM BKN150
     FM250700 VRB03KT P6SM SCT150
     FM251400 30007KT P6SM FEW030=

USA.gov is the U.S. government's official web portal to all federal, state and local government web resources and services.